Terminal Aerodrome Forecast
Issued by NWS

Home | Current Version | Previous Version | Text Only | Print | Product List | Glossary On
Versions: 1 2 3 4 5 6 7 8 9 10 11 12 13
924
FTUS46 KSEW 060520
TAFPAE
TAF
KPAE 060520Z 0606/0706 20020G33KT P6SM SCT015 BKN025 OVC040
     FM060900 18008KT 5SM -SHRA SCT010 BKN020 OVC035
     FM061400 19008KT P6SM VCSH SCT025 BKN040 OVC100
     FM070100 11005KT P6SM SCT025 BKN040 OVC100=

USA.gov is the U.S. government's official web portal to all federal, state and local government web resources and services.